Time;durP1;ratioP1;P1;durP2;ratioP2;P2;SDS_P1;SDS_P2;PMS_P1;PMS_P2;Temp;Humidity;BMP_temperature;BMP_pressure;BME280_temperature;BME280_humidity;BME280_pressure;Samples;Min_cycle;Max_cycle;Signal;HPM_P1;HPM_P2
2022/03/07 00:02:11;;;;;;;3.97;1.40;;;;;;;10.94;nan;101131.72;4882998;29;20508;-89
2022/03/07 00:04:39;;;;;;;3.17;1.23;;;;;;;10.95;nan;101130.69;4883802;29;20470;-88
2022/03/07 00:07:07;;;;;;;2.90;1.30;;;;;;;10.98;nan;101152.16;4883297;29;20516;-89
2022/03/07 00:09:43;;;;;;;4.50;1.10;;;;;;;10.92;nan;101143.88;4883336;29;20925;-88
2022/03/07 00:12:11;;;;;;;2.43;1.20;;;;;;;10.84;nan;101135.75;4898926;29;20461;-88
2022/03/07 00:14:41;;;;;;;5.90;1.50;;;;;;;10.83;nan;101134.91;4870343;29;20513;-90
2022/03/07 00:17:15;;;;;;;3.70;1.30;;;;;;;10.78;nan;101129.13;4898307;29;20457;-88
2022/03/07 00:19:43;;;;;;;3.03;1.53;;;;;;;10.82;nan;101133.19;4883400;29;20453;-88
2022/03/07 00:22:11;;;;;;;5.70;1.67;;;;;;;10.84;nan;101138.47;4867928;29;20473;-88
2022/03/07 00:24:39;;;;;;;7.43;1.30;;;;;;;10.83;nan;101140.38;4868072;29;20452;-89
2022/03/07 00:27:08;;;;;;;3.90;1.30;;;;;;;10.80;nan;101146.19;4898535;29;20472;-87
2022/03/07 00:29:36;;;;;;;2.57;1.17;;;;;;;10.79;nan;101147.25;4898684;29;20508;-89
2022/03/07 00:32:04;;;;;;;4.47;1.63;;;;;;;10.81;nan;101155.25;4882740;29;20447;-88
2022/03/07 00:34:33;;;;;;;2.23;0.97;;;;;;;10.84;nan;101172.16;4865924;29;20466;-89
2022/03/07 00:37:01;;;;;;;4.87;1.07;;;;;;;10.87;nan;101169.03;4898299;29;20453;-90
2022/03/07 00:39:36;;;;;;;1.90;1.07;;;;;;;10.85;nan;101170.25;4882764;29;20454;-89
2022/03/07 00:42:08;;;;;;;2.60;1.37;;;;;;;10.88;nan;101173.47;4898571;29;20540;-88
2022/03/07 00:44:39;;;;;;;2.30;1.23;;;;;;;10.91;nan;101186.78;4898513;29;20511;-90
2022/03/07 00:47:21;;;;;;;2.90;1.13;;;;;;;10.95;nan;101187.28;4867751;29;20987;-89
2022/03/07 00:49:55;;;;;;;3.90;1.20;;;;;;;10.86;nan;101170.06;4898042;29;20465;-91
2022/03/07 00:52:24;;;;;;;6.10;1.30;;;;;;;10.76;nan;101176.84;4882722;29;20445;-89
2022/03/07 00:54:52;;;;;;;5.10;1.67;;;;;;;10.72;nan;101176.38;4881900;29;20461;-89
2022/03/07 00:57:22;;;;;;;3.17;1.40;;;;;;;10.64;nan;101168.22;4883062;29;20426;-88
2022/03/07 00:59:55;;;;;;;2.50;0.90;;;;;;;10.67;nan;101174.19;4882424;29;20952;-89
2022/03/07 01:02:25;;;;;;;1.60;1.00;;;;;;;10.71;nan;101180.13;4882906;29;20478;-89
2022/03/07 01:05:00;;;;;;;1.53;1.20;;;;;;;10.68;nan;101178.63;4897936;29;20812;-90
2022/03/07 01:07:29;;;;;;;3.53;1.37;;;;;;;10.69;nan;101179.47;4896509;29;20475;-89
2022/03/07 01:09:57;;;;;;;2.40;1.17;;;;;;;10.66;nan;101172.47;4882918;29;20454;-89
2022/03/07 01:12:28;;;;;;;2.77;1.30;;;;;;;10.69;nan;101176.72;4867285;29;20449;-88
2022/03/07 01:14:56;;;;;;;2.13;1.50;;;;;;;10.56;nan;101152.75;4898840;29;20460;-89
2022/03/07 01:17:24;;;;;;;4.93;1.47;;;;;;;10.69;nan;101180.31;4882466;29;20464;-89
2022/03/07 01:19:59;;;;;;;1.93;1.10;;;;;;;10.65;nan;101175.41;4882766;29;20944;-90
2022/03/07 01:22:29;;;;;;;3.70;1.80;;;;;;;10.59;nan;101173.38;4897658;29;20482;-90
2022/03/07 01:24:57;;;;;;;3.47;1.57;;;;;;;10.51;nan;101165.28;4894160;29;20457;-90
2022/03/07 01:27:26;;;;;;;3.80;1.40;;;;;;;10.37;nan;101162.31;4867419;29;20457;-91
2022/03/07 01:29:54;;;;;;;2.30;1.23;;;;;;;10.28;nan;101166.13;4867228;29;20453;-90
2022/03/07 01:32:22;;;;;;;3.77;1.70;;;;;;;10.20;nan;101160.69;4814494;29;20820;-88
2022/03/07 01:34:53;;;;;;;4.33;1.93;;;;;;;10.13;nan;101150.66;4814862;29;20507;-89
2022/03/07 01:37:22;;;;;;;3.00;1.13;;;;;;;10.05;nan;101152.41;4811062;29;20457;-89
2022/03/07 01:39:56;;;;;;;3.93;1.80;;;;;;;9.92;nan;101129.47;4811422;29;20586;-90
2022/03/07 01:42:24;;;;;;;7.10;1.60;;;;;;;9.83;nan;101136.00;4838835;29;20554;-88
2022/03/07 01:44:52;;;;;;;3.90;1.17;;;;;;;9.77;nan;101144.91;4795973;29;20457;-89
2022/03/07 01:47:24;;;;;;;4.20;1.57;;;;;;;9.68;nan;101134.03;4829789;29;20462;-88
2022/03/07 01:49:54;;;;;;;5.90;1.40;;;;;;;9.59;nan;101137.00;4843854;29;20451;-88
2022/03/07 01:52:23;;;;;;;9.50;1.20;;;;;;;9.56;nan;101140.91;4829498;29;20443;-88
2022/03/07 01:54:51;;;;;;;1.60;1.17;;;;;;;9.50;nan;101133.44;4813327;29;20567;-89
2022/03/07 01:57:21;;;;;;;5.00;1.73;;;;;;;9.41;nan;101129.06;4853963;29;20458;-90
2022/03/07 01:59:50;;;;;;;3.33;1.10;;;;;;;9.32;nan;101125.50;4866569;29;20465;-89
2022/03/07 02:02:18;;;;;;;2.90;1.37;;;;;;;9.31;nan;101125.69;4813633;29;20487;-91
2022/03/07 02:04:46;;;;;;;5.23;1.37;;;;;;;9.22;nan;101121.28;4843919;29;20465;-91
2022/03/07 02:07:13;;;;;;;1.93;1.33;;;;;;;9.16;nan;101105.63;4858845;29;20463;-89
2022/03/07 02:09:43;;;;;;;4.30;1.33;;;;;;;9.34;nan;101119.88;4832750;29;20993;-89
2022/03/07 02:12:11;;;;;;;3.10;1.20;;;;;;;9.30;nan;101096.69;4829572;29;21056;-91
2022/03/07 02:14:39;;;;;;;3.53;1.30;;;;;;;9.42;nan;101121.72;4828826;29;20464;-90
2022/03/07 02:17:07;;;;;;;2.13;1.17;;;;;;;9.31;nan;101114.75;4843902;29;20463;-89
2022/03/07 02:19:37;;;;;;;3.40;1.20;;;;;;;9.23;nan;101117.53;4837063;29;20938;-89
2022/03/07 02:22:05;;;;;;;2.13;1.37;;;;;;;9.05;nan;101108.72;4866279;29;21132;-89
2022/03/07 02:24:37;;;;;;;2.37;1.30;;;;;;;8.96;nan;101122.38;4882037;29;20523;-89
2022/03/07 02:27:07;;;;;;;3.40;1.40;;;;;;;8.89;nan;101107.75;4866547;29;20484;-89
2022/03/07 02:29:39;;;;;;;2.93;1.23;;;;;;;8.81;nan;101112.38;4881456;29;20469;-89
2022/03/07 02:32:08;;;;;;;2.50;1.30;;;;;;;8.75;nan;101104.88;4896727;29;20444;-89
2022/03/07 02:34:36;;;;;;;3.87;1.67;;;;;;;8.62;nan;101094.53;4864987;29;20488;-89
2022/03/07 02:37:04;;;;;;;2.53;1.20;;;;;;;8.64;nan;101108.81;4881143;29;20468;-88
2022/03/07 02:39:32;;;;;;;3.67;1.50;;;;;;;8.47;nan;101098.94;4881308;29;20464;-89
2022/03/07 02:42:13;;;;;;;5.20;2.10;;;;;;;8.47;nan;101105.25;4883007;29;20489;-89
2022/03/07 02:44:42;;;;;;;3.73;1.73;;;;;;;8.39;nan;101098.97;4896360;29;20513;-89
2022/03/07 02:47:15;;;;;;;5.53;2.33;;;;;;;8.26;nan;101092.13;4874435;29;20453;-89
2022/03/07 02:49:43;;;;;;;2.87;1.70;;;;;;;8.23;nan;101095.19;4865692;29;20830;-89
2022/03/07 02:52:14;;;;;;;10.40;2.00;;;;;;;8.11;nan;101092.97;4865830;29;20449;-88
2022/03/07 02:54:47;;;;;;;2.30;1.23;;;;;;;8.03;nan;101106.59;4866791;29;20481;-90
2022/03/07 02:57:15;;;;;;;2.73;1.10;;;;;;;7.96;nan;101106.41;4899269;29;20476;-90
2022/03/07 02:59:44;;;;;;;2.17;1.40;;;;;;;7.88;nan;101103.69;4884594;29;20457;-89
2022/03/07 03:02:12;;;;;;;5.80;1.73;;;;;;;7.88;nan;101120.00;4899684;29;20556;-88
2022/03/07 03:04:43;;;;;;;32.30;17.40;;;;;;;7.79;nan;101104.66;4895198;29;20469;-89
2022/03/07 03:07:11;;;;;;;6.23;4.30;;;;;;;7.79;nan;101110.09;4884447;29;20468;-89
2022/03/07 03:09:39;;;;;;;1.97;1.20;;;;;;;7.70;nan;101116.56;4869339;29;20454;-90
2022/03/07 03:12:10;;;;;;;4.10;1.20;;;;;;;7.51;nan;101113.09;4884221;29;20457;-90
2022/03/07 03:14:39;;;;;;;3.13;1.10;;;;;;;7.51;nan;101120.38;4884303;29;20453;-89
2022/03/07 03:17:07;;;;;;;3.83;1.90;;;;;;;7.34;nan;101105.88;4911623;29;20449;-88
2022/03/07 03:19:35;;;;;;;7.13;1.10;;;;;;;7.38;nan;101111.84;4902451;29;20480;-89
2022/03/07 03:22:03;;;;;;;2.83;1.20;;;;;;;7.46;nan;101120.06;4871653;29;20458;-88
2022/03/07 03:24:31;;;;;;;2.70;1.33;;;;;;;7.51;nan;101123.97;4868639;29;20453;-88
2022/03/07 03:27:00;;;;;;;1.83;1.17;;;;;;;7.51;nan;101113.09;4884060;29;20968;-89
2022/03/07 03:29:31;;;;;;;1.87;1.33;;;;;;;7.48;nan;101108.00;4883727;29;20466;-88
2022/03/07 03:32:00;;;;;;;3.80;1.90;;;;;;;7.42;nan;101113.22;4899061;29;20454;-88
2022/03/07 03:34:34;;;;;;;2.97;1.60;;;;;;;7.34;nan;101110.47;4884006;29;20462;-88
2022/03/07 03:37:07;;;;;;;11.37;2.23;;;;;;;7.32;nan;101107.91;4884522;29;20488;-88
2022/03/07 03:39:36;;;;;;;3.37;1.53;;;;;;;7.23;nan;101098.03;4897077;29;20465;-90
2022/03/07 03:42:05;;;;;;;1.50;1.10;;;;;;;7.16;nan;101102.41;4898670;29;20460;-88
2022/03/07 03:44:35;;;;;;;3.23;1.10;;;;;;;6.97;nan;101094.50;4899528;29;20450;-89
2022/03/07 03:47:03;;;;;;;1.60;1.03;;;;;;;6.96;nan;101098.25;4899087;29;20678;-88
2022/03/07 03:49:32;;;;;;;3.43;1.27;;;;;;;6.96;nan;101100.94;4868937;29;20786;-89
2022/03/07 03:52:01;;;;;;;3.23;1.03;;;;;;;6.94;nan;101093.81;4868170;29;20465;-89
2022/03/07 03:54:29;;;;;;;2.33;1.30;;;;;;;6.86;nan;101069.34;4880302;29;20446;-91
2022/03/07 03:56:58;;;;;;;2.40;1.20;;;;;;;6.97;nan;101086.34;4883519;29;20453;-89
2022/03/07 03:59:26;;;;;;;5.70;1.73;;;;;;;7.01;nan;101090.47;4900099;29;20453;-90
2022/03/07 04:01:53;;;;;;;1.73;1.23;;;;;;;6.91;nan;101077.00;4867244;29;20453;-89
2022/03/07 04:04:22;;;;;;;3.17;1.50;;;;;;;6.73;nan;101068.09;4867969;29;20494;-89
2022/03/07 04:06:51;;;;;;;5.73;1.37;;;;;;;6.64;nan;101075.31;4867846;29;20463;-89
2022/03/07 04:09:24;;;;;;;3.63;1.20;;;;;;;6.59;nan;101072.22;4883530;29;20450;-88
2022/03/07 04:11:54;;;;;;;9.60;1.43;;;;;;;6.52;nan;101061.16;4868155;29;20798;-89
2022/03/07 04:14:23;;;;;;;6.17;1.77;;;;;;;6.59;nan;101072.22;4870780;29;20473;-90
2022/03/07 04:16:53;;;;;;;3.60;1.20;;;;;;;6.59;nan;101064.06;4882549;29;20940;-89
2022/03/07 04:19:21;;;;;;;3.17;1.87;;;;;;;6.65;nan;101070.75;4898933;29;20858;-91
2022/03/07 04:21:49;;;;;;;2.70;1.33;;;;;;;6.65;nan;101077.03;4899008;29;20469;-89
2022/03/07 04:24:17;;;;;;;2.60;1.13;;;;;;;6.63;nan;101079.03;4882822;29;20823;-88
2022/03/07 04:26:45;;;;;;;3.20;1.30;;;;;;;6.54;nan;101055.59;4883167;29;20453;-88
2022/03/07 04:29:14;;;;;;;4.43;1.37;;;;;;;6.62;nan;101071.06;4882880;29;20459;-89
2022/03/07 04:31:43;;;;;;;3.77;1.40;;;;;;;6.62;nan;101077.34;4899438;29;20959;-88
2022/03/07 04:34:12;;;;;;;2.87;1.30;;;;;;;6.57;nan;101068.81;4898165;29;20482;-90
2022/03/07 04:36:40;;;;;;;5.70;1.80;;;;;;;6.47;nan;101063.50;4871572;29;20501;-88
2022/03/07 04:39:09;;;;;;;2.27;1.30;;;;;;;6.54;nan;101078.13;4882844;29;20453;-89
2022/03/07 04:41:37;;;;;;;2.70;1.33;;;;;;;6.43;nan;101069.41;4879150;29;20865;-90
2022/03/07 04:44:05;;;;;;;5.23;1.47;;;;;;;6.37;nan;101067.31;4880237;29;20490;-89
2022/03/07 04:46:33;;;;;;;3.30;1.50;;;;;;;6.28;nan;101063.72;4898604;29;20453;-89
2022/03/07 04:49:01;;;;;;;3.07;2.40;;;;;;;6.29;nan;101075.41;4882858;29;20523;-88
2022/03/07 04:51:29;;;;;;;4.77;2.40;;;;;;;6.22;nan;101065.19;4882498;29;20483;-88
2022/03/07 04:53:56;;;;;;;8.00;4.00;;;;;;;6.17;nan;101062.06;4878373;29;20819;-88
2022/03/07 04:56:25;;;;;;;20.33;4.67;;;;;;;6.23;nan;101077.75;4882332;29;20878;-88
2022/03/07 04:58:53;;;;;;;6.17;2.00;;;;;;;6.27;nan;101080.16;4867785;29;20446;-88
2022/03/07 05:01:22;;;;;;;6.63;2.20;;;;;;;6.29;nan;101076.28;4898184;29;20795;-88
2022/03/07 05:03:51;;;;;;;6.13;2.60;;;;;;;6.24;nan;101074.03;4897613;29;20480;-88
2022/03/07 05:06:21;;;;;;;11.30;2.60;;;;;;;6.31;nan;101085.09;4882326;29;20453;-90
2022/03/07 05:08:49;;;;;;;9.13;3.00;;;;;;;6.27;nan;101066.56;4896064;29;20457;-88
2022/03/07 05:11:16;;;;;;;9.10;2.77;;;;;;;6.34;nan;101078.50;4897504;29;20458;-88
2022/03/07 05:13:44;;;;;;;10.13;2.50;;;;;;;6.31;nan;101073.41;4870188;29;20453;-89
2022/03/07 05:16:12;;;;;;;6.90;2.80;;;;;;;6.34;nan;101081.22;4867461;29;20441;-88
2022/03/07 05:18:40;;;;;;;9.40;2.37;;;;;;;6.33;nan;101082.25;4866657;29;20454;-90
2022/03/07 05:21:10;;;;;;;13.70;3.70;;;;;;;6.37;nan;101083.59;4867105;29;20454;-89
2022/03/07 05:23:39;;;;;;;5.90;2.60;;;;;;;6.41;nan;101074.13;4878089;29;20478;-87
2022/03/07 05:26:08;;;;;;;4.93;2.10;;;;;;;6.57;nan;101085.09;4879184;29;20855;-90
2022/03/07 05:28:36;;;;;;;3.80;1.60;;;;;;;6.73;nan;101085.22;4896850;29;20461;-89
2022/03/07 05:31:09;;;;;;;3.63;1.60;;;;;;;6.99;nan;101081.63;4897299;29;20457;-89
2022/03/07 05:33:37;;;;;;;4.20;1.80;;;;;;;7.09;nan;101064.19;4877408;29;20471;-88
2022/03/07 05:36:06;;;;;;;9.43;3.10;;;;;;;7.27;nan;101062.22;4879745;29;20451;-90
2022/03/07 05:38:34;;;;;;;4.63;1.60;;;;;;;7.55;nan;101086.41;4896829;29;20976;-88
2022/03/07 05:41:03;;;;;;;3.20;1.60;;;;;;;7.66;nan;101082.53;4882364;29;21001;-89
2022/03/07 05:43:31;;;;;;;3.80;1.70;;;;;;;7.74;nan;101080.69;4871823;29;20853;-89
2022/03/07 05:46:06;;;;;;;8.10;1.63;;;;;;;7.87;nan;101085.66;4882429;29;20454;-91
2022/03/07 05:48:34;;;;;;;4.20;1.30;;;;;;;7.95;nan;101085.63;4863861;29;20466;-88
2022/03/07 05:51:04;;;;;;;6.63;1.57;;;;;;;7.89;nan;101079.00;4888406;29;20462;-89
2022/03/07 05:53:32;;;;;;;4.00;1.90;;;;;;;8.00;nan;101090.59;4881513;29;20512;-89
2022/03/07 05:56:02;;;;;;;3.57;1.60;;;;;;;8.03;nan;101091.09;4897275;29;20464;-89
2022/03/07 05:58:30;;;;;;;4.27;1.77;;;;;;;8.04;nan;101100.13;4866686;29;20953;-88
2022/03/07 06:01:00;;;;;;;4.50;1.27;;;;;;;7.98;nan;101093.47;4866751;29;20453;-89
2022/03/07 06:03:30;;;;;;;4.43;1.30;;;;;;;7.97;nan;101103.50;4866447;29;20536;-89
2022/03/07 06:05:58;;;;;;;4.37;1.57;;;;;;;7.84;nan;101084.13;4897291;29;20449;-88
2022/03/07 06:08:37;;;;;;;6.10;1.60;;;;;;;7.95;nan;101102.81;4896391;29;20466;-89
2022/03/07 06:11:08;;;;;;;5.60;1.60;;;;;;;7.92;nan;101100.44;4878809;29;20447;-89
2022/03/07 06:13:43;;;;;;;3.67;1.60;;;;;;;7.99;nan;101108.78;4894705;29;20872;-91
2022/03/07 06:16:12;;;;;;;7.20;1.60;;;;;;;8.01;nan;101104.03;4822815;29;20460;-90
2022/03/07 06:18:39;;;;;;;6.10;1.40;;;;;;;8.04;nan;101103.69;4819256;29;20458;-89
2022/03/07 06:21:08;;;;;;;3.37;1.50;;;;;;;7.97;nan;101097.22;4789138;29;20450;-90
2022/03/07 06:23:36;;;;;;;4.47;1.60;;;;;;;8.04;nan;101102.84;4821531;29;20987;-91
2022/03/07 06:26:05;;;;;;;5.60;1.37;;;;;;;8.09;nan;101111.34;4837398;29;20648;-91
2022/03/07 06:28:34;;;;;;;5.03;1.80;;;;;;;8.12;nan;101111.00;4806228;29;20484;-89
2022/03/07 06:31:02;;;;;;;3.10;1.30;;;;;;;8.08;nan;101121.38;4797922;29;20452;-89
2022/03/07 06:33:31;;;;;;;5.93;1.57;;;;;;;8.02;nan;101105.72;4789540;29;20473;-90
2022/03/07 06:35:59;;;;;;;4.63;1.63;;;;;;;8.09;nan;101120.34;4880844;29;20458;-89
2022/03/07 06:38:27;;;;;;;5.63;1.70;;;;;;;8.08;nan;101121.38;4866263;29;20462;-89
2022/03/07 06:40:54;;;;;;;6.33;1.40;;;;;;;8.02;nan;101122.06;4885361;29;20468;-90
2022/03/07 06:43:22;;;;;;;1.87;1.10;;;;;;;8.04;nan;101122.75;4867530;29;20485;-91
2022/03/07 06:45:50;;;;;;;5.60;1.73;;;;;;;8.06;nan;101128.03;4885205;29;20461;-89
2022/03/07 06:48:18;;;;;;;4.20;1.70;;;;;;;7.97;nan;101110.81;4884579;29;20469;-89
2022/03/07 06:50:48;;;;;;;5.60;1.73;;;;;;;8.03;nan;101131.09;4885093;29;20524;-91
2022/03/07 06:53:17;;;;;;;8.07;2.03;;;;;;;8.01;nan;101133.97;4899636;29;20461;-89
2022/03/07 06:55:49;;;;;;;3.30;1.60;;;;;;;8.01;nan;101120.34;4885458;29;20457;-89
2022/03/07 06:58:18;;;;;;;6.13;1.50;;;;;;;8.02;nan;101121.22;4868740;29;20516;-89
2022/03/07 07:00:48;;;;;;;2.30;1.30;;;;;;;7.96;nan;101117.28;4900382;29;20944;-90
2022/03/07 07:03:16;;;;;;;8.50;1.80;;;;;;;7.92;nan;101113.19;4899659;29;20465;-91
2022/03/07 07:05:44;;;;;;;3.93;1.43;;;;;;;7.91;nan;101111.47;4896934;29;20461;-89
2022/03/07 07:08:15;;;;;;;2.00;1.33;;;;;;;7.96;nan;101125.44;4884072;29;20957;-89
2022/03/07 07:10:43;;;;;;;4.10;1.80;;;;;;;7.93;nan;101125.78;4812686;29;20449;-89
2022/03/07 07:13:14;;;;;;;2.23;1.40;;;;;;;8.01;nan;101136.69;4802556;29;20444;-89
2022/03/07 07:15:42;;;;;;;5.00;1.50;;;;;;;8.02;nan;101132.94;4816106;29;21132;-89
2022/03/07 07:18:12;;;;;;;3.97;1.20;;;;;;;8.06;nan;101131.59;4819563;29;20441;-90
2022/03/07 07:20:40;;;;;;;2.83;1.60;;;;;;;8.12;nan;101139.06;4842442;29;20497;-89
2022/03/07 07:23:08;;;;;;;2.90;1.40;;;;;;;8.20;nan;101135.53;4824206;29;21011;-89
2022/03/07 07:25:36;;;;;;;6.17;2.00;;;;;;;8.29;nan;101139.94;4845899;29;20447;-89
2022/03/07 07:28:05;;;;;;;4.77;1.50;;;;;;;8.32;nan;101129.59;4848039;29;20434;-89
2022/03/07 07:30:34;;;;;;;3.50;2.10;;;;;;;8.41;nan;101138.63;4895247;29;20537;-89
2022/03/07 07:33:03;;;;;;;5.33;2.00;;;;;;;8.52;nan;101157.34;4883683;29;20469;-89
2022/03/07 07:35:35;;;;;;;4.80;1.90;;;;;;;8.48;nan;101139.63;4899028;29;20446;-91
2022/03/07 07:38:04;;;;;;;3.90;1.60;;;;;;;8.63;nan;101164.34;4884252;29;20446;-90
2022/03/07 07:40:34;;;;;;;3.63;1.67;;;;;;;8.62;nan;101152.59;4896034;29;20505;-89
2022/03/07 07:43:02;;;;;;;3.23;1.73;;;;;;;8.76;nan;101180.16;4898535;29;20437;-90
2022/03/07 07:45:31;;;;;;;9.13;1.70;;;;;;;8.81;nan;101186.81;4883359;29;20481;-90
2022/03/07 07:47:59;;;;;;;4.97;1.37;;;;;;;8.83;nan;101176.59;4882854;29;20814;-90
2022/03/07 07:50:27;;;;;;;9.83;1.90;;;;;;;8.94;nan;101183.53;4898377;29;20453;-90
2022/03/07 07:52:55;;;;;;;3.23;1.20;;;;;;;9.03;nan;101187.13;4883298;29;20438;-91
2022/03/07 07:55:25;;;;;;;6.47;1.80;;;;;;;9.09;nan;101186.41;4883430;29;20450;-90
2022/03/07 07:58:03;;;;;;;5.70;1.67;;;;;;;9.09;nan;101173.63;4898671;29;20836;-90
2022/03/07 08:00:32;;;;;;;5.07;1.57;;;;;;;9.31;nan;101196.59;4892402;29;20454;-91
2022/03/07 08:03:03;;;;;;;7.53;1.70;;;;;;;9.37;nan;101195.91;4883525;29;20442;-90
2022/03/07 08:05:36;;;;;;;5.80;1.90;;;;;;;9.49;nan;101199.94;4880328;29;20982;-90
2022/03/07 08:08:04;;;;;;;3.23;1.70;;;;;;;9.55;nan;101198.41;4883062;29;20461;-89
2022/03/07 08:10:32;;;;;;;4.40;1.70;;;;;;;9.64;nan;101202.78;4861351;29;20463;-89
2022/03/07 08:13:01;;;;;;;6.27;2.37;;;;;;;9.81;nan;101198.13;4896303;29;20450;-89
2022/03/07 08:15:29;;;;;;;8.90;2.30;;;;;;;9.83;nan;101191.44;4897301;29;20449;-89
2022/03/07 08:17:58;;;;;;;3.50;1.50;;;;;;;9.91;nan;101190.56;4868406;29;20512;-88
2022/03/07 08:20:27;;;;;;;7.13;2.87;;;;;;;10.01;nan;101196.63;4897628;29;20457;-89
2022/03/07 08:22:57;;;;;;;5.63;1.73;;;;;;;10.14;nan;101198.81;4882800;29;20461;-89
2022/03/07 08:25:25;;;;;;;7.03;2.10;;;;;;;10.21;nan;101200.66;4879870;29;21016;-89
2022/03/07 08:27:55;;;;;;;7.13;1.90;;;;;;;10.27;nan;101175.34;4867675;29;20449;-89
2022/03/07 08:30:24;;;;;;;8.63;2.00;;;;;;;10.36;nan;101182.47;4898249;29;20470;-89
2022/03/07 08:32:52;;;;;;;9.63;2.13;;;;;;;10.44;nan;101175.22;4882736;29;20513;-89
2022/03/07 08:35:21;;;;;;;5.33;2.00;;;;;;;10.56;nan;101181.97;4882866;29;20453;-88
2022/03/07 08:37:52;;;;;;;4.87;2.20;;;;;;;10.61;nan;101176.78;4882290;29;20465;-89
2022/03/07 08:40:21;;;;;;;12.93;3.53;;;;;;;10.71;nan;101180.97;4897945;29;20968;-89
2022/03/07 08:42:48;;;;;;;12.00;2.20;;;;;;;10.81;nan;101169.78;4863299;29;20455;-88
2022/03/07 08:45:18;;;;;;;5.13;1.93;;;;;;;10.86;nan;101172.81;4864585;29;20497;-88
2022/03/07 08:47:50;;;;;;;4.20;1.97;;;;;;;11.00;nan;101180.19;4865045;29;20446;-88
2022/03/07 08:50:18;;;;;;;13.00;2.60;;;;;;;11.08;nan;101187.47;4864578;29;20824;-88
2022/03/07 08:52:47;;;;;;;8.30;1.60;;;;;;;11.15;nan;101193.91;4866874;29;20826;-87
2022/03/07 08:55:15;;;;;;;13.33;1.97;;;;;;;11.22;nan;101180.31;4866867;29;20512;-89
2022/03/07 08:57:43;;;;;;;9.90;2.27;;;;;;;11.31;nan;101192.88;4867402;29;20461;-89
2022/03/07 09:00:14;;;;;;;5.20;1.67;;;;;;;11.33;nan;101174.41;4866707;29;20957;-89
2022/03/07 09:02:46;;;;;;;2.30;1.10;;;;;;;11.47;nan;101176.28;4897720;29;20460;-89
2022/03/07 09:05:15;;;;;;;2.27;1.30;;;;;;;11.59;nan;101180.22;4881939;29;20486;-89
2022/03/07 09:07:44;;;;;;;3.70;1.23;;;;;;;11.71;nan;101175.13;4866798;29;20854;-89
2022/03/07 09:10:13;;;;;;;2.90;1.33;;;;;;;11.76;nan;101187.22;4897363;29;20450;-89
2022/03/07 09:12:43;;;;;;;2.37;1.10;;;;;;;11.87;nan;101196.00;4897013;29;20462;-88
2022/03/07 09:15:14;;;;;;;3.23;1.20;;;;;;;11.95;nan;101193.13;4888865;29;20457;-91
2022/03/07 09:17:42;;;;;;;5.10;1.23;;;;;;;12.10;nan;101210.41;4869337;29;20451;-87
2022/03/07 09:20:13;;;;;;;4.57;0.90;;;;;;;12.17;nan;101208.59;4863700;29;20458;-89
2022/03/07 09:22:41;;;;;;;6.47;1.40;;;;;;;12.24;nan;101211.41;4875034;29;20452;-87
2022/03/07 09:25:10;;;;;;;2.23;1.40;;;;;;;12.33;nan;101216.56;4898280;29;20493;-89
2022/03/07 09:27:39;;;;;;;7.40;1.40;;;;;;;12.43;nan;101222.59;4897026;29;20457;-88
2022/03/07 09:30:07;;;;;;;1.80;1.03;;;;;;;12.56;nan;101226.50;4863595;29;20449;-88
2022/03/07 09:32:35;;;;;;;2.80;1.20;;;;;;;12.69;nan;101215.69;4889710;29;21060;-89
2022/03/07 09:35:03;;;;;;;1.60;0.90;;;;;;;12.89;nan;101230.47;4866883;29;20460;-87
2022/03/07 09:37:32;;;;;;;2.60;1.03;;;;;;;13.02;nan;101233.31;4881412;29;20458;-87
2022/03/07 09:40:06;;;;;;;3.70;1.00;;;;;;;13.01;nan;101220.63;4867066;29;20460;-91
2022/03/07 09:42:35;;;;;;;3.53;1.00;;;;;;;13.18;nan;101237.69;4881830;29;20469;-91
2022/03/07 09:45:12;;;;;;;4.53;1.30;;;;;;;12.04;nan;101024.88;4856589;29;20485;-91
2022/03/07 09:47:41;;;;;;;2.30;1.20;;;;;;;13.29;nan;101217.06;4880342;29;20504;-90
2022/03/07 09:50:12;;;;;;;2.80;1.37;;;;;;;13.47;nan;101225.63;4880031;29;20991;-90
2022/03/07 09:52:43;;;;;;;2.90;1.87;;;;;;;13.56;nan;101234.56;4881765;29;20455;-92
2022/03/07 09:55:13;;;;;;;2.73;1.20;;;;;;;13.63;nan;101230.84;4866402;29;20816;-87
2022/03/07 09:57:44;;;;;;;3.40;1.40;;;;;;;13.66;nan;101224.91;4878129;29;20450;-89
2022/03/07 10:00:16;;;;;;;2.40;1.30;;;;;;;13.69;nan;101234.66;4878588;29;20957;-91
2022/03/07 10:03:18;;;;;;;2.90;1.00;;;;;;;13.75;nan;101231.97;4863405;29;20510;-91
2022/03/07 10:05:47;;;;;;;5.33;1.03;;;;;;;13.81;nan;101238.53;4866360;29;20493;-91
2022/03/07 10:08:24;;;;;;;2.30;1.03;;;;;;;13.86;nan;101229.66;4867867;29;20466;-91
2022/03/07 10:10:52;;;;;;;3.53;1.00;;;;;;;14.02;nan;101248.59;4879211;29;20470;-93
2022/03/07 10:13:22;;;;;;;7.13;1.10;;;;;;;14.07;nan;101226.81;4886357;29;20487;-92
2022/03/07 10:16:00;;;;;;;5.30;1.10;;;;;;;14.24;nan;101244.66;4883834;29;20453;-89
2022/03/07 10:18:29;;;;;;;1.90;1.33;;;;;;;14.31;nan;101245.53;4884831;29;20449;-90
2022/03/07 10:21:00;;;;;;;2.80;1.30;;;;;;;14.44;nan;101244.75;4900095;29;20467;-89
2022/03/07 10:23:28;;;;;;;3.00;1.00;;;;;;;14.59;nan;101242.69;4900659;29;20937;-89
2022/03/07 10:26:09;;;;;;;3.23;1.53;;;;;;;14.74;nan;101231.50;4885121;29;20988;-89
2022/03/07 10:28:41;;;;;;;2.63;0.93;;;;;;;14.88;nan;101255.22;4833182;29;20462;-89
2022/03/07 10:31:15;;;;;;;3.60;0.83;;;;;;;14.87;nan;101256.28;4846704;29;21030;-89
2022/03/07 10:33:44;;;;;;;5.83;0.90;;;;;;;14.93;nan;101258.19;4853471;29;20539;-89
2022/03/07 10:36:14;;;;;;;1.50;0.80;;;;;;;15.07;nan;101245.28;4831796;29;21033;-88
2022/03/07 10:38:44;;;;;;;2.30;0.80;;;;;;;15.19;nan;101258.22;4847238;29;20451;-90
2022/03/07 10:41:13;;;;;;;1.00;0.63;;;;;;;15.31;nan;101249.31;4831538;29;20522;-89
2022/03/07 10:43:49;;;;;;;2.63;0.70;;;;;;;15.39;nan;101243.59;4831833;29;20459;-89
2022/03/07 10:46:26;;;;;;;1.27;0.90;;;;;;;15.56;nan;101255.91;4858900;29;20721;-90
2022/03/07 10:48:54;;;;;;;3.30;1.30;;;;;;;15.60;nan;101251.63;4899587;29;20480;-89
2022/03/07 10:51:25;;;;;;;2.10;0.93;;;;;;;15.55;nan;101245.91;4901080;29;20492;-89
2022/03/07 10:53:54;;;;;;;2.70;0.70;;;;;;;15.53;nan;101246.13;4901435;29;20453;-90
2022/03/07 10:56:24;;;;;;;1.20;0.63;;;;;;;15.58;nan;101231.75;4869172;29;20449;-91
2022/03/07 10:58:54;;;;;;;1.67;0.80;;;;;;;15.65;nan;101254.59;4884721;29;20456;-90
2022/03/07 11:01:34;;;;;;;2.73;0.80;;;;;;;15.70;nan;101245.69;4898274;29;20461;-89
2022/03/07 11:04:02;;;;;;;1.30;0.70;;;;;;;15.60;nan;101243.38;4901974;29;20449;-90
2022/03/07 11:06:30;;;;;;;2.07;0.73;;;;;;;15.54;nan;101228.53;4883975;29;20489;-89
2022/03/07 11:08:58;;;;;;;2.03;0.90;;;;;;;15.69;nan;101231.06;4884059;29;20980;-90
2022/03/07 11:11:27;;;;;;;6.00;1.10;;;;;;;15.84;nan;101248.19;4846636;29;20459;-89
2022/03/07 11:13:55;;;;;;;1.47;0.70;;;;;;;15.96;nan;101244.78;4830942;29;20981;-89
2022/03/07 11:16:24;;;;;;;3.30;0.90;;;;;;;15.99;nan;101236.06;4845520;29;20454;-90
2022/03/07 11:18:53;;;;;;;4.00;0.90;;;;;;;15.96;nan;101231.84;4846546;29;20970;-89
2022/03/07 11:21:27;;;;;;;6.13;0.70;;;;;;;16.16;nan;101242.81;4846933;29;20461;-89
2022/03/07 11:23:56;;;;;;;5.80;1.27;;;;;;;16.31;nan;101240.63;4846126;29;20483;-89
2022/03/07 11:26:26;;;;;;;3.00;0.80;;;;;;;16.20;nan;101233.00;4815570;29;20544;-90
2022/03/07 11:28:57;;;;;;;1.60;0.90;;;;;;;16.27;nan;101233.84;4831562;29;20451;-89
2022/03/07 11:31:27;;;;;;;2.40;0.73;;;;;;;16.31;nan;101248.03;4795562;29;20834;-90
2022/03/07 11:33:55;;;;;;;2.27;0.63;;;;;;;16.32;nan;101230.44;4779766;29;20473;-89
2022/03/07 11:36:24;;;;;;;2.33;0.80;;;;;;;16.39;nan;101245.00;4824752;29;20460;-89
2022/03/07 11:38:57;;;;;;;4.80;0.80;;;;;;;16.55;nan;101226.03;4830865;29;20478;-90
2022/03/07 11:41:29;;;;;;;3.70;0.70;;;;;;;16.84;nan;101226.53;4846021;29;20834;-90
2022/03/07 11:44:00;;;;;;;2.20;1.10;;;;;;;17.05;nan;101222.56;4863591;29;20462;-90
2022/03/07 11:46:52;;;;;;;5.30;1.40;;;;;;;17.10;nan;101237.38;4864319;29;21052;-89
2022/03/07 11:49:28;;;;;;;2.63;0.70;;;;;;;17.00;nan;101249.97;4855639;29;20459;-90
2022/03/07 11:52:03;;;;;;;1.33;0.70;;;;;;;16.91;nan;101230.94;4869648;29;20453;-90
2022/03/07 11:54:32;;;;;;;1.20;0.50;;;;;;;17.02;nan;101234.03;4898995;29;20454;-91
2022/03/07 11:57:10;;;;;;;2.57;0.77;;;;;;;16.94;nan;101232.38;4868477;29;20462;-90
2022/03/07 11:59:41;;;;;;;1.50;0.60;;;;;;;16.93;nan;101247.28;4864655;29;20462;-89